createdAt,value
2022-09-26T00:08:20.536Z,97.4
2022-09-26T00:20:20.563Z,97.4
2022-09-26T00:32:20.540Z,97.4
2022-09-26T00:44:20.501Z,97.4
2022-09-26T00:56:20.549Z,97.4
2022-09-26T01:08:20.560Z,97.4
2022-09-26T01:20:20.539Z,97.3
2022-09-26T01:32:20.553Z,97.4
2022-09-26T01:44:20.535Z,97.4
2022-09-26T01:56:20.541Z,97.4
2022-09-26T02:08:20.546Z,97.4
2022-09-26T02:20:20.526Z,97.4
2022-09-26T02:32:20.541Z,97.4
2022-09-26T02:44:20.543Z,97.4
2022-09-26T02:56:20.581Z,97.4
2022-09-26T03:08:20.747Z,97.4
2022-09-26T03:20:20.557Z,97.4
2022-09-26T03:32:20.541Z,97.4
2022-09-26T03:44:20.523Z,97.4
2022-09-26T03:56:20.533Z,97.4
2022-09-26T04:08:20.679Z,97.4
2022-09-26T04:20:20.534Z,97.4
2022-09-26T04:32:20.543Z,97.4
2022-09-26T04:44:20.558Z,97.3
2022-09-26T04:56:20.594Z,97.3
2022-09-26T05:08:20.552Z,97.3
2022-09-26T05:20:20.573Z,97.3
2022-09-26T05:32:20.544Z,97.3
2022-09-26T05:44:21.213Z,97.3
2022-09-26T05:56:20.535Z,97.3
2022-09-26T06:08:20.549Z,97.4
2022-09-26T06:20:20.550Z,97.4
2022-09-26T06:32:20.558Z,97.4
2022-09-26T06:44:20.605Z,97.4
2022-09-26T06:56:20.868Z,97.4
2022-09-26T07:08:28.846Z,97.4
2022-09-26T07:20:20.536Z,97.5
2022-09-26T07:32:20.546Z,97.5
2022-09-26T07:56:20.559Z,97.6
2022-09-26T08:08:20.562Z,97.6
2022-09-26T08:20:20.769Z,97.6
2022-09-26T08:32:20.555Z,97.6
2022-09-26T08:44:20.546Z,97.7
2022-09-26T08:56:20.552Z,96.9
2022-09-26T09:08:20.532Z,97.1
2022-09-26T09:20:20.581Z,97.3
2022-09-26T09:32:20.551Z,97.7
2022-09-26T09:44:20.662Z,96.4
2022-09-26T09:56:20.559Z,97.7
2022-09-26T10:08:22.045Z,97.7
2022-09-26T10:20:20.546Z,97.6
2022-09-26T10:32:20.515Z,97.7
2022-09-26T10:44:20.575Z,97.7
2022-09-26T10:56:20.555Z,97.7
2022-09-26T11:08:20.670Z,97.8
2022-09-26T11:20:20.527Z,97.7
2022-09-26T11:32:20.553Z,97.8
2022-09-26T11:44:21.182Z,97.7
2022-09-26T11:56:20.537Z,97.7
2022-09-26T12:08:20.567Z,97.7
2022-09-26T12:20:20.523Z,97.8
2022-09-26T12:32:20.527Z,97.8
2022-09-26T12:44:20.559Z,95.8
2022-09-26T12:56:20.522Z,92.3
2022-09-26T13:08:20.512Z,85.6
2022-09-26T13:20:20.618Z,81.0
2022-09-26T13:32:20.552Z,82.6
2022-09-26T13:44:20.554Z,81.8
2022-09-26T13:56:20.527Z,80.0
2022-09-26T14:08:20.552Z,82.0
2022-09-26T14:20:20.549Z,81.9
2022-09-26T14:32:20.543Z,83.1
2022-09-26T14:44:20.583Z,91.2
2022-09-26T14:56:20.551Z,97.2
2022-09-26T15:08:20.797Z,97.7
2022-09-26T15:20:20.510Z,97.7
2022-09-26T15:32:20.559Z,97.7
2022-09-26T15:44:20.503Z,97.7
2022-09-26T15:56:21.171Z,97.7
2022-09-26T16:08:20.856Z,97.7
2022-09-26T16:20:20.542Z,97.7
2022-09-26T16:32:20.554Z,97.7
2022-09-26T16:44:26.212Z,97.7
2022-09-26T16:56:20.536Z,97.7
2022-09-26T17:08:21.035Z,97.7
2022-09-26T17:20:20.516Z,97.6
2022-09-26T17:32:20.553Z,97.6
2022-09-26T17:44:20.529Z,97.6
2022-09-26T17:56:20.504Z,97.6
2022-09-26T18:08:20.540Z,97.6
2022-09-26T18:20:20.544Z,97.6
2022-09-26T18:32:20.533Z,97.6
2022-09-26T18:44:20.496Z,97.6
2022-09-26T18:56:20.482Z,97.6
2022-09-26T19:08:21.434Z,97.6
2022-09-26T19:20:20.538Z,97.6
2022-09-26T19:32:20.513Z,97.6
2022-09-26T19:44:20.515Z,97.6
2022-09-26T19:56:20.571Z,97.6
2022-09-26T20:08:20.543Z,97.6
2022-09-26T20:20:20.552Z,97.6
2022-09-26T20:32:20.503Z,97.6
2022-09-26T20:44:20.561Z,97.6
2022-09-26T20:56:20.552Z,97.6
2022-09-26T21:08:20.505Z,97.6
2022-09-26T21:20:21.721Z,97.6
2022-09-26T21:32:20.561Z,97.6
2022-09-26T21:44:20.556Z,97.6
2022-09-26T21:56:20.541Z,97.6
2022-09-26T22:08:20.563Z,97.6
2022-09-26T22:20:20.951Z,97.6
2022-09-26T22:32:20.537Z,97.6
2022-09-26T22:44:20.504Z,97.6
2022-09-26T22:56:20.554Z,97.6
2022-09-26T23:08:20.562Z,97.6
2022-09-26T23:20:20.529Z,97.6
2022-09-26T23:32:20.580Z,97.6
2022-09-26T23:44:20.525Z,97.6
2022-09-26T23:56:20.557Z,97.6
